ARE4272 SKBO-SKSP
Flight info
| Callsign | ARE4272 |
|---|---|
| Flight time | 1h 39m |
| Altitude | 36000 |
| Route | VASIL4U VASIL UL423 PULOX DCT ARORO UN653 TOSAV TOSAV2A |
| Aircraft | A320/M-SDE3FGHIRWY/LB1 |
Departure
| Time | 2026-05-08 19:23 |
|---|---|
| Airport | El Dorado International Airport (SKBO) |
Arrival
| Time | 2026-05-08 21:03 |
|---|---|
| Airport | Gustavo Rojas Pinilla International Airport (SKSP) |
| Time | Latitude | Longitude | Altitude | Speed | Heading |
|---|---|---|---|---|---|
| 2026-05-08 19:03 | 4.69937 | -74.14267 | 8362 ft | 0 kts | 37° |
| 2026-05-08 19:12 | 4.69924 | -74.14276 | 8361 ft | 4 kts | 31° |
| 2026-05-08 19:13 | 4.69900 | -74.14287 | 8361 ft | 4 kts | 6° |
| 2026-05-08 19:13 | 4.69878 | -74.14283 | 8361 ft | 4 kts | 309° |
| 2026-05-08 19:13 | 4.69872 | -74.14275 | 8362 ft | 0 kts | 303° |
| 2026-05-08 19:16 | 4.69875 | -74.14280 | 8361 ft | 3 kts | 303° |
| 2026-05-08 19:16 | 4.69901 | -74.14318 | 8361 ft | 10 kts | 306° |
| 2026-05-08 19:16 | 4.69951 | -74.14385 | 8361 ft | 14 kts | 307° |
| 2026-05-08 19:16 | 4.70018 | -74.14477 | 8361 ft | 19 kts | 306° |
| 2026-05-08 19:17 | 4.70071 | -74.14578 | 8361 ft | 10 kts | 242° |
| 2026-05-08 19:17 | 4.70012 | -74.14608 | 8362 ft | 12 kts | 215° |
| 2026-05-08 19:17 | 4.69940 | -74.14669 | 8361 ft | 16 kts | 220° |
| 2026-05-08 19:17 | 4.69888 | -74.14759 | 8361 ft | 18 kts | 280° |
| 2026-05-08 19:18 | 4.69887 | -74.14885 | 8362 ft | 20 kts | 297° |
| 2026-05-08 19:18 | 4.69981 | -74.15009 | 8361 ft | 24 kts | 308° |
| 2026-05-08 19:18 | 4.70090 | -74.15154 | 8361 ft | 28 kts | 306° |
| 2026-05-08 19:18 | 4.70212 | -74.15314 | 8361 ft | 29 kts | 308° |
| 2026-05-08 19:19 | 4.70333 | -74.15474 | 8361 ft | 29 kts | 306° |
| 2026-05-08 19:19 | 4.70457 | -74.15631 | 8361 ft | 29 kts | 308° |
| 2026-05-08 19:19 | 4.70583 | -74.15785 | 8361 ft | 28 kts | 310° |
| 2026-05-08 19:19 | 4.70704 | -74.15942 | 8361 ft | 28 kts | 308° |
| 2026-05-08 19:20 | 4.70822 | -74.16098 | 8361 ft | 28 kts | 307° |
| 2026-05-08 19:20 | 4.70860 | -74.16148 | 8361 ft | 28 kts | 307° |
| 2026-05-08 19:20 | 4.71055 | -74.16404 | 8360 ft | 27 kts | 306° |
| 2026-05-08 19:20 | 4.71166 | -74.16552 | 8360 ft | 26 kts | 307° |
| 2026-05-08 19:21 | 4.71270 | -74.16685 | 8360 ft | 17 kts | 308° |
| 2026-05-08 19:21 | 4.71269 | -74.16773 | 8360 ft | 14 kts | 232° |
| 2026-05-08 19:21 | 4.71234 | -74.16860 | 8360 ft | 13 kts | 233° |
| 2026-05-08 19:21 | 4.71156 | -74.16896 | 8360 ft | 13 kts | 180° |
| 2026-05-08 19:22 | 4.71064 | -74.16887 | 8359 ft | 13 kts | 174° |
| 2026-05-08 19:22 | 4.71010 | -74.16866 | 8360 ft | 8 kts | 128° |
| 2026-05-08 19:22 | 4.70983 | -74.16828 | 8360 ft | 6 kts | 127° |
| 2026-05-08 19:22 | 4.70922 | -74.16748 | 8359 ft | 36 kts | 127° |
| 2026-05-08 19:23 | 4.70636 | -74.16371 | 8362 ft | 97 kts | 127° |
| 2026-05-08 19:23 | 4.70127 | -74.15698 | 8361 ft | 143 kts | 127° |
| 2026-05-08 19:23 | 4.69454 | -74.14810 | 8366 ft | 181 kts | 126° |
| 2026-05-08 19:23 | 4.68699 | -74.13830 | 9043 ft | 174 kts | 127° |
| 2026-05-08 19:24 | 4.67838 | -74.12942 | 9469 ft | 184 kts | 155° |
| 2026-05-08 19:24 | 4.66619 | -74.12828 | 9765 ft | 179 kts | 200° |
| 2026-05-08 19:24 | 4.65673 | -74.13660 | 9701 ft | 193 kts | 244° |
| 2026-05-08 19:24 | 4.65220 | -74.14910 | 10053 ft | 196 kts | 252° |
| 2026-05-08 19:25 | 4.64754 | -74.16246 | 10190 ft | 211 kts | 241° |
| 2026-05-08 19:25 | 4.63990 | -74.17522 | 10324 ft | 228 kts | 234° |
| 2026-05-08 19:25 | 4.63043 | -74.18887 | 10506 ft | 245 kts | 233° |
| 2026-05-08 19:25 | 4.62055 | -74.20312 | 10959 ft | 251 kts | 237° |
| 2026-05-08 19:26 | 4.61375 | -74.21959 | 11267 ft | 267 kts | 253° |
| 2026-05-08 19:26 | 4.60922 | -74.23825 | 11387 ft | 290 kts | 258° |
| 2026-05-08 19:26 | 4.60635 | -74.25209 | 11460 ft | 305 kts | 258° |
| 2026-05-08 19:26 | 4.60522 | -74.27001 | 11544 ft | 323 kts | 279° |
| 2026-05-08 19:27 | 4.61295 | -74.29134 | 11664 ft | 341 kts | 298° |
| 2026-05-08 19:27 | 4.62486 | -74.31244 | 11942 ft | 353 kts | 301° |
| 2026-05-08 19:27 | 4.63794 | -74.33358 | 12376 ft | 360 kts | 303° |
| 2026-05-08 19:27 | 4.65149 | -74.35481 | 12865 ft | 364 kts | 303° |
| 2026-05-08 19:28 | 4.66513 | -74.37627 | 13427 ft | 365 kts | 303° |
| 2026-05-08 19:28 | 4.67867 | -74.39789 | 13995 ft | 367 kts | 302° |
| 2026-05-08 19:28 | 4.69213 | -74.41976 | 14443 ft | 370 kts | 302° |
| 2026-05-08 19:28 | 4.70556 | -74.44190 | 14909 ft | 373 kts | 301° |
| 2026-05-08 19:29 | 4.71899 | -74.46422 | 15391 ft | 375 kts | 301° |
| 2026-05-08 19:29 | 4.72792 | -74.47905 | 15711 ft | 376 kts | 301° |
| 2026-05-08 19:29 | 4.74147 | -74.50156 | 16148 ft | 378 kts | 301° |
| 2026-05-08 19:29 | 4.75977 | -74.53191 | 16822 ft | 382 kts | 301° |
| 2026-05-08 19:30 | 4.76890 | -74.54704 | 17151 ft | 384 kts | 301° |
| 2026-05-08 19:30 | 4.78277 | -74.57003 | 17624 ft | 387 kts | 301° |
| 2026-05-08 19:30 | 4.79680 | -74.59326 | 18116 ft | 390 kts | 301° |
| 2026-05-08 19:30 | 4.81069 | -74.61629 | 18546 ft | 392 kts | 301° |
| 2026-05-08 19:31 | 4.82506 | -74.64008 | 18968 ft | 395 kts | 301° |
| 2026-05-08 19:31 | 4.83914 | -74.66337 | 19377 ft | 397 kts | 301° |
| 2026-05-08 19:31 | 4.85350 | -74.68710 | 19798 ft | 399 kts | 301° |
| 2026-05-08 19:31 | 4.86794 | -74.71098 | 20245 ft | 401 kts | 301° |
| 2026-05-08 19:32 | 4.88246 | -74.73499 | 20675 ft | 404 kts | 301° |
| 2026-05-08 19:32 | 4.89708 | -74.75914 | 21083 ft | 407 kts | 301° |
| 2026-05-08 19:32 | 4.91180 | -74.78346 | 21506 ft | 409 kts | 301° |
| 2026-05-08 19:32 | 4.92660 | -74.80794 | 21941 ft | 411 kts | 301° |
| 2026-05-08 19:33 | 4.94144 | -74.83255 | 22342 ft | 414 kts | 301° |
| 2026-05-08 19:33 | 4.95639 | -74.85735 | 22738 ft | 416 kts | 301° |
| 2026-05-08 19:33 | 4.97142 | -74.88225 | 23125 ft | 419 kts | 301° |
| 2026-05-08 19:33 | 4.98656 | -74.90736 | 23488 ft | 422 kts | 301° |
| 2026-05-08 19:34 | 5.00157 | -74.93225 | 23785 ft | 424 kts | 301° |
| 2026-05-08 19:34 | 5.01687 | -74.95761 | 24094 ft | 426 kts | 301° |
| 2026-05-08 19:34 | 5.03226 | -74.98308 | 24403 ft | 428 kts | 301° |
| 2026-05-08 19:34 | 5.04771 | -75.00867 | 24764 ft | 430 kts | 300° |
| 2026-05-08 19:35 | 5.06322 | -75.03435 | 25078 ft | 432 kts | 300° |
| 2026-05-08 19:35 | 5.07880 | -75.06016 | 25379 ft | 433 kts | 300° |
| 2026-05-08 19:35 | 5.09445 | -75.08610 | 25717 ft | 436 kts | 300° |
| 2026-05-08 19:35 | 5.11018 | -75.11216 | 26019 ft | 438 kts | 300° |
| 2026-05-08 19:36 | 5.12595 | -75.13831 | 26329 ft | 440 kts | 300° |
| 2026-05-08 19:36 | 5.14182 | -75.16463 | 26624 ft | 442 kts | 300° |
| 2026-05-08 19:36 | 5.15874 | -75.19047 | 26882 ft | 445 kts | 307° |
| 2026-05-08 19:36 | 5.17897 | -75.21410 | 27183 ft | 448 kts | 310° |
| 2026-05-08 19:37 | 5.19968 | -75.23747 | 27496 ft | 448 kts | 310° |
| 2026-05-08 19:37 | 5.22044 | -75.26088 | 27770 ft | 450 kts | 310° |
| 2026-05-08 19:37 | 5.24100 | -75.28408 | 27998 ft | 452 kts | 310° |
| 2026-05-08 19:37 | 5.26195 | -75.30777 | 28239 ft | 455 kts | 310° |
| 2026-05-08 19:38 | 5.28299 | -75.33156 | 28510 ft | 456 kts | 310° |
| 2026-05-08 19:38 | 5.30408 | -75.35541 | 28776 ft | 459 kts | 310° |
| 2026-05-08 19:38 | 5.32534 | -75.37942 | 29007 ft | 461 kts | 310° |
| 2026-05-08 19:38 | 5.34664 | -75.40351 | 29262 ft | 463 kts | 310° |
| 2026-05-08 19:39 | 5.36803 | -75.42773 | 29527 ft | 465 kts | 311° |
| 2026-05-08 19:39 | 5.38949 | -75.45199 | 29843 ft | 466 kts | 310° |
| 2026-05-08 19:39 | 5.41098 | -75.47629 | 30207 ft | 465 kts | 310° |
| 2026-05-08 19:39 | 5.43238 | -75.50051 | 30535 ft | 463 kts | 310° |
| 2026-05-08 19:40 | 5.45344 | -75.52436 | 30882 ft | 461 kts | 311° |
| 2026-05-08 19:40 | 5.47470 | -75.54840 | 31240 ft | 459 kts | 311° |
| 2026-05-08 19:40 | 5.49586 | -75.57234 | 31618 ft | 458 kts | 311° |
| 2026-05-08 19:40 | 5.51693 | -75.59623 | 31979 ft | 456 kts | 311° |
| 2026-05-08 19:41 | 5.53792 | -75.62002 | 32366 ft | 454 kts | 311° |
| 2026-05-08 19:41 | 5.55883 | -75.64368 | 32759 ft | 452 kts | 310° |
| 2026-05-08 19:41 | 5.57960 | -75.66719 | 33202 ft | 448 kts | 311° |
| 2026-05-08 19:41 | 5.60019 | -75.69053 | 33649 ft | 445 kts | 311° |
| 2026-05-08 19:42 | 5.62064 | -75.71374 | 33993 ft | 443 kts | 311° |
| 2026-05-08 19:42 | 5.64076 | -75.73656 | 34273 ft | 442 kts | 311° |
| 2026-05-08 19:42 | 5.66109 | -75.75962 | 34549 ft | 440 kts | 311° |
| 2026-05-08 19:42 | 5.68139 | -75.78260 | 34837 ft | 439 kts | 311° |
| 2026-05-08 19:43 | 5.70169 | -75.80556 | 35053 ft | 440 kts | 312° |
| 2026-05-08 19:43 | 5.72402 | -75.82650 | 35290 ft | 440 kts | 321° |
| 2026-05-08 19:43 | 5.74826 | -75.84530 | 35522 ft | 440 kts | 321° |
| 2026-05-08 19:43 | 5.77249 | -75.86402 | 35761 ft | 439 kts | 321° |
| 2026-05-08 19:44 | 5.79671 | -75.88272 | 35914 ft | 440 kts | 321° |
| 2026-05-08 19:44 | 5.84548 | -75.92044 | 35951 ft | 444 kts | 321° |
| 2026-05-08 19:45 | 5.89445 | -75.95838 | 35966 ft | 445 kts | 321° |
| 2026-05-08 19:45 | 5.94321 | -75.99613 | 35955 ft | 446 kts | 321° |
| 2026-05-08 19:46 | 5.99237 | -76.03431 | 35957 ft | 447 kts | 321° |
| 2026-05-08 19:46 | 6.06633 | -76.09163 | 35969 ft | 448 kts | 321° |
| 2026-05-08 19:47 | 6.11567 | -76.12991 | 35975 ft | 448 kts | 321° |
| 2026-05-08 19:47 | 6.16501 | -76.16822 | 35984 ft | 448 kts | 321° |
| 2026-05-08 19:48 | 6.21394 | -76.20611 | 35992 ft | 446 kts | 320° |
| 2026-05-08 19:48 | 6.26298 | -76.24423 | 35994 ft | 445 kts | 321° |
| 2026-05-08 19:49 | 6.31202 | -76.28232 | 35988 ft | 446 kts | 322° |
| 2026-05-08 19:49 | 6.36119 | -76.32048 | 35980 ft | 447 kts | 322° |
| 2026-05-08 19:50 | 6.41006 | -76.35850 | 35977 ft | 447 kts | 322° |
| 2026-05-08 19:50 | 6.45932 | -76.39676 | 35949 ft | 448 kts | 322° |
| 2026-05-08 19:51 | 6.50863 | -76.43510 | 35947 ft | 448 kts | 322° |
| 2026-05-08 19:51 | 6.55791 | -76.47341 | 35944 ft | 448 kts | 322° |
| 2026-05-08 19:52 | 6.60692 | -76.51145 | 35911 ft | 448 kts | 321° |
| 2026-05-08 19:52 | 6.65628 | -76.54991 | 35901 ft | 449 kts | 321° |
| 2026-05-08 19:53 | 6.70583 | -76.58848 | 35885 ft | 451 kts | 321° |
| 2026-05-08 19:53 | 6.75549 | -76.62717 | 35886 ft | 452 kts | 321° |
| 2026-05-08 19:54 | 6.80531 | -76.66588 | 35870 ft | 453 kts | 321° |
| 2026-05-08 19:54 | 6.85519 | -76.70465 | 35866 ft | 453 kts | 321° |
| 2026-05-08 19:55 | 6.90504 | -76.74350 | 35867 ft | 453 kts | 321° |
| 2026-05-08 19:55 | 6.95451 | -76.78213 | 35869 ft | 453 kts | 321° |
| 2026-05-08 19:56 | 7.00441 | -76.82099 | 35853 ft | 453 kts | 321° |
| 2026-05-08 19:56 | 7.05429 | -76.85985 | 35853 ft | 453 kts | 321° |
| 2026-05-08 19:57 | 7.10422 | -76.89868 | 35853 ft | 453 kts | 321° |
| 2026-05-08 19:57 | 7.15406 | -76.93758 | 35849 ft | 453 kts | 321° |
| 2026-05-08 19:58 | 7.20353 | -76.97620 | 35843 ft | 453 kts | 321° |
| 2026-05-08 19:58 | 7.25332 | -77.01513 | 35843 ft | 453 kts | 321° |
| 2026-05-08 19:59 | 7.30315 | -77.05399 | 35842 ft | 453 kts | 321° |
| 2026-05-08 19:59 | 7.35296 | -77.09284 | 35847 ft | 453 kts | 321° |
| 2026-05-08 20:00 | 7.40272 | -77.13171 | 35852 ft | 453 kts | 321° |
| 2026-05-08 20:00 | 7.45217 | -77.17037 | 35846 ft | 453 kts | 321° |
| 2026-05-08 20:01 | 7.50202 | -77.20932 | 35846 ft | 453 kts | 321° |
| 2026-05-08 20:01 | 7.55183 | -77.24831 | 35852 ft | 453 kts | 321° |
| 2026-05-08 20:02 | 7.60159 | -77.28731 | 35853 ft | 453 kts | 320° |
| 2026-05-08 20:02 | 7.65140 | -77.32625 | 35853 ft | 453 kts | 321° |
| 2026-05-08 20:03 | 7.70120 | -77.36514 | 35852 ft | 453 kts | 320° |
| 2026-05-08 20:03 | 7.74858 | -77.40656 | 35860 ft | 450 kts | 310° |
| 2026-05-08 20:04 | 7.79065 | -77.45333 | 35869 ft | 450 kts | 311° |
| 2026-05-08 20:04 | 7.83245 | -77.49979 | 35866 ft | 450 kts | 311° |
| 2026-05-08 20:05 | 7.87450 | -77.54655 | 35864 ft | 450 kts | 311° |
| 2026-05-08 20:05 | 7.91652 | -77.59326 | 35857 ft | 450 kts | 311° |
| 2026-05-08 20:06 | 7.95860 | -77.64001 | 35848 ft | 450 kts | 313° |
| 2026-05-08 20:06 | 8.00072 | -77.68680 | 35845 ft | 451 kts | 312° |
| 2026-05-08 20:07 | 8.04287 | -77.73366 | 35835 ft | 451 kts | 313° |
| 2026-05-08 20:07 | 8.08501 | -77.78059 | 35835 ft | 451 kts | 312° |
| 2026-05-08 20:08 | 8.12685 | -77.82725 | 35836 ft | 451 kts | 312° |
| 2026-05-08 20:08 | 8.16901 | -77.87422 | 35838 ft | 451 kts | 313° |
| 2026-05-08 20:09 | 8.21108 | -77.92104 | 35849 ft | 449 kts | 312° |
| 2026-05-08 20:09 | 8.25303 | -77.96770 | 35849 ft | 448 kts | 312° |
| 2026-05-08 20:10 | 8.29457 | -78.01398 | 35849 ft | 447 kts | 312° |
| 2026-05-08 20:10 | 8.33629 | -78.06046 | 35845 ft | 447 kts | 312° |
| 2026-05-08 20:11 | 8.37830 | -78.10728 | 35840 ft | 446 kts | 312° |
| 2026-05-08 20:11 | 8.42160 | -78.15151 | 35837 ft | 446 kts | 320° |
| 2026-05-08 20:12 | 8.46937 | -78.19155 | 35837 ft | 447 kts | 320° |
| 2026-05-08 20:12 | 8.51723 | -78.23165 | 35839 ft | 447 kts | 320° |
| 2026-05-08 20:13 | 8.56504 | -78.27176 | 35830 ft | 447 kts | 320° |
| 2026-05-08 20:13 | 8.61291 | -78.31204 | 35822 ft | 448 kts | 319° |
| 2026-05-08 20:14 | 8.66090 | -78.35239 | 35816 ft | 449 kts | 319° |
| 2026-05-08 20:14 | 8.70895 | -78.39281 | 35821 ft | 449 kts | 320° |
| 2026-05-08 20:15 | 8.75670 | -78.43295 | 35827 ft | 450 kts | 319° |
| 2026-05-08 20:15 | 8.80484 | -78.47340 | 35831 ft | 450 kts | 319° |
| 2026-05-08 20:16 | 8.85299 | -78.51391 | 35835 ft | 451 kts | 319° |
| 2026-05-08 20:16 | 8.90116 | -78.55453 | 35838 ft | 451 kts | 319° |
| 2026-05-08 20:17 | 8.94930 | -78.59506 | 35861 ft | 450 kts | 320° |
| 2026-05-08 20:17 | 8.99726 | -78.63543 | 35862 ft | 447 kts | 320° |
| 2026-05-08 20:18 | 9.04468 | -78.67537 | 35862 ft | 446 kts | 320° |
| 2026-05-08 20:18 | 9.09227 | -78.71558 | 35861 ft | 445 kts | 320° |
| 2026-05-08 20:19 | 9.13983 | -78.75573 | 35858 ft | 445 kts | 320° |
| 2026-05-08 20:19 | 9.18743 | -78.79577 | 35858 ft | 445 kts | 320° |
| 2026-05-08 20:20 | 9.23502 | -78.83585 | 35859 ft | 445 kts | 320° |
| 2026-05-08 20:20 | 9.28220 | -78.87577 | 35857 ft | 445 kts | 320° |
| 2026-05-08 20:21 | 9.32972 | -78.91593 | 35847 ft | 446 kts | 320° |
| 2026-05-08 20:21 | 9.37734 | -78.95618 | 35847 ft | 446 kts | 320° |
| 2026-05-08 20:22 | 9.42505 | -78.99652 | 35857 ft | 447 kts | 320° |
| 2026-05-08 20:22 | 9.46471 | -79.03003 | 35859 ft | 447 kts | 320° |
| 2026-05-08 20:23 | 9.52017 | -79.07699 | 35850 ft | 447 kts | 320° |
| 2026-05-08 20:23 | 9.56802 | -79.11738 | 35848 ft | 448 kts | 320° |
| 2026-05-08 20:24 | 9.61599 | -79.15792 | 35849 ft | 449 kts | 320° |
| 2026-05-08 20:24 | 9.66392 | -79.19855 | 35853 ft | 449 kts | 320° |
| 2026-05-08 20:25 | 9.71182 | -79.23916 | 35867 ft | 449 kts | 320° |
| 2026-05-08 20:25 | 9.75971 | -79.27977 | 35872 ft | 448 kts | 320° |
| 2026-05-08 20:26 | 9.80755 | -79.32032 | 35869 ft | 448 kts | 320° |
| 2026-05-08 20:26 | 9.85533 | -79.36087 | 35868 ft | 448 kts | 320° |
| 2026-05-08 20:27 | 9.90280 | -79.40122 | 35867 ft | 448 kts | 320° |
| 2026-05-08 20:27 | 9.95095 | -79.44203 | 35868 ft | 448 kts | 321° |
| 2026-05-08 20:28 | 9.99850 | -79.48227 | 35866 ft | 448 kts | 320° |
| 2026-05-08 20:28 | 10.04630 | -79.52287 | 35864 ft | 448 kts | 320° |
| 2026-05-08 20:29 | 10.09404 | -79.56348 | 35868 ft | 448 kts | 320° |
| 2026-05-08 20:29 | 10.14178 | -79.60404 | 35873 ft | 447 kts | 320° |
| 2026-05-08 20:30 | 10.18942 | -79.64466 | 35870 ft | 447 kts | 320° |
| 2026-05-08 20:30 | 10.23708 | -79.68525 | 35872 ft | 447 kts | 320° |
| 2026-05-08 20:31 | 10.28442 | -79.72556 | 35874 ft | 447 kts | 320° |
| 2026-05-08 20:31 | 10.33207 | -79.76617 | 35872 ft | 447 kts | 320° |
| 2026-05-08 20:32 | 10.37978 | -79.80671 | 35870 ft | 447 kts | 320° |
| 2026-05-08 20:32 | 10.42745 | -79.84736 | 35868 ft | 448 kts | 320° |
| 2026-05-08 20:33 | 10.47516 | -79.88810 | 35873 ft | 448 kts | 320° |
| 2026-05-08 20:33 | 10.52289 | -79.92885 | 35874 ft | 448 kts | 320° |
| 2026-05-08 20:34 | 10.57028 | -79.96935 | 35874 ft | 448 kts | 320° |
| 2026-05-08 20:35 | 10.64188 | -80.03059 | 35876 ft | 449 kts | 320° |
| 2026-05-08 20:35 | 10.68964 | -80.07147 | 35878 ft | 449 kts | 320° |
| 2026-05-08 20:36 | 10.73741 | -80.11235 | 35883 ft | 449 kts | 320° |
| 2026-05-08 20:36 | 10.78509 | -80.15323 | 35882 ft | 449 kts | 320° |
| 2026-05-08 20:37 | 10.83255 | -80.19383 | 35881 ft | 449 kts | 320° |
| 2026-05-08 20:37 | 10.88040 | -80.23476 | 35880 ft | 449 kts | 320° |
| 2026-05-08 20:38 | 10.92821 | -80.27573 | 35882 ft | 450 kts | 320° |
| 2026-05-08 20:38 | 10.97595 | -80.31680 | 35885 ft | 450 kts | 320° |
| 2026-05-08 20:39 | 11.02378 | -80.35786 | 35883 ft | 450 kts | 320° |
| 2026-05-08 20:39 | 11.07158 | -80.39887 | 35883 ft | 449 kts | 320° |
| 2026-05-08 20:40 | 11.11903 | -80.43967 | 35885 ft | 449 kts | 320° |
| 2026-05-08 20:40 | 11.16683 | -80.48068 | 35883 ft | 449 kts | 320° |
| 2026-05-08 20:40 | 11.19078 | -80.50124 | 35456 ft | 451 kts | 320° |
| 2026-05-08 20:41 | 11.21473 | -80.52181 | 34939 ft | 450 kts | 320° |
| 2026-05-08 20:41 | 11.23859 | -80.54232 | 34429 ft | 448 kts | 320° |
| 2026-05-08 20:41 | 11.26239 | -80.56277 | 33932 ft | 447 kts | 320° |
| 2026-05-08 20:41 | 11.28609 | -80.58320 | 33378 ft | 446 kts | 320° |
| 2026-05-08 20:42 | 11.30968 | -80.60356 | 32824 ft | 444 kts | 320° |
| 2026-05-08 20:42 | 11.33325 | -80.62387 | 32273 ft | 442 kts | 320° |
| 2026-05-08 20:42 | 11.35670 | -80.64406 | 31746 ft | 441 kts | 321° |
| 2026-05-08 20:42 | 11.38005 | -80.66418 | 31222 ft | 439 kts | 321° |
| 2026-05-08 20:43 | 11.40299 | -80.68394 | 30717 ft | 437 kts | 321° |
| 2026-05-08 20:43 | 11.42610 | -80.70389 | 30215 ft | 435 kts | 321° |
| 2026-05-08 20:43 | 11.44915 | -80.72380 | 29677 ft | 433 kts | 321° |
| 2026-05-08 20:43 | 11.47210 | -80.74358 | 29097 ft | 431 kts | 321° |
| 2026-05-08 20:44 | 11.49499 | -80.76326 | 28529 ft | 430 kts | 321° |
| 2026-05-08 20:44 | 11.51779 | -80.78288 | 27970 ft | 428 kts | 322° |
| 2026-05-08 20:44 | 11.54051 | -80.80243 | 27422 ft | 427 kts | 322° |
| 2026-05-08 20:44 | 11.56313 | -80.82196 | 26898 ft | 426 kts | 322° |
| 2026-05-08 20:45 | 11.58572 | -80.84147 | 26365 ft | 425 kts | 322° |
| 2026-05-08 20:45 | 11.60067 | -80.85436 | 26019 ft | 425 kts | 322° |
| 2026-05-08 20:45 | 11.63054 | -80.88006 | 25351 ft | 424 kts | 322° |
| 2026-05-08 20:45 | 11.65309 | -80.89947 | 24852 ft | 424 kts | 323° |
| 2026-05-08 20:46 | 11.67556 | -80.91888 | 24363 ft | 424 kts | 322° |
| 2026-05-08 20:46 | 11.69611 | -80.94058 | 23881 ft | 428 kts | 310° |
| 2026-05-08 20:46 | 11.71291 | -80.96577 | 23401 ft | 430 kts | 306° |
| 2026-05-08 20:46 | 11.72939 | -80.99119 | 22834 ft | 430 kts | 306° |
| 2026-05-08 20:47 | 11.74587 | -81.01663 | 22278 ft | 429 kts | 306° |
| 2026-05-08 20:47 | 11.76233 | -81.04203 | 21731 ft | 428 kts | 306° |
| 2026-05-08 20:47 | 11.77855 | -81.06701 | 21194 ft | 427 kts | 306° |
| 2026-05-08 20:47 | 11.79495 | -81.09222 | 20679 ft | 426 kts | 306° |
| 2026-05-08 20:48 | 11.81126 | -81.11730 | 20211 ft | 423 kts | 306° |
| 2026-05-08 20:48 | 11.82746 | -81.14228 | 19748 ft | 420 kts | 306° |
| 2026-05-08 20:48 | 11.84353 | -81.16711 | 19295 ft | 417 kts | 305° |
| 2026-05-08 20:48 | 11.85948 | -81.19176 | 18842 ft | 414 kts | 305° |
| 2026-05-08 20:49 | 11.87531 | -81.21619 | 18402 ft | 411 kts | 305° |
| 2026-05-08 20:49 | 11.89103 | -81.24043 | 17927 ft | 408 kts | 305° |
| 2026-05-08 20:49 | 11.90662 | -81.26441 | 17417 ft | 404 kts | 306° |
| 2026-05-08 20:49 | 11.92210 | -81.28821 | 16915 ft | 400 kts | 305° |
| 2026-05-08 20:50 | 11.93720 | -81.31144 | 16431 ft | 396 kts | 305° |
| 2026-05-08 20:50 | 11.95233 | -81.33476 | 15947 ft | 392 kts | 305° |
| 2026-05-08 20:50 | 11.96728 | -81.35786 | 15465 ft | 388 kts | 305° |
| 2026-05-08 20:50 | 11.98206 | -81.38074 | 15010 ft | 384 kts | 305° |
| 2026-05-08 20:51 | 11.99669 | -81.40340 | 14539 ft | 380 kts | 305° |
| 2026-05-08 20:51 | 12.01123 | -81.42584 | 14084 ft | 377 kts | 305° |
| 2026-05-08 20:51 | 12.02565 | -81.44807 | 13630 ft | 374 kts | 305° |
| 2026-05-08 20:51 | 12.03994 | -81.47015 | 13125 ft | 371 kts | 305° |
| 2026-05-08 20:52 | 12.05411 | -81.49205 | 12625 ft | 368 kts | 305° |
| 2026-05-08 20:52 | 12.06820 | -81.51379 | 12139 ft | 366 kts | 305° |
| 2026-05-08 20:52 | 12.08220 | -81.53538 | 11657 ft | 363 kts | 305° |
| 2026-05-08 20:52 | 12.09633 | -81.55664 | 11175 ft | 360 kts | 310° |
| 2026-05-08 20:53 | 12.11357 | -81.57432 | 10711 ft | 354 kts | 323° |
| 2026-05-08 20:53 | 12.13275 | -81.59006 | 10245 ft | 352 kts | 323° |
| 2026-05-08 20:53 | 12.15182 | -81.60572 | 9800 ft | 351 kts | 323° |
| 2026-05-08 20:53 | 12.17076 | -81.62129 | 9303 ft | 349 kts | 323° |
| 2026-05-08 20:54 | 12.18955 | -81.63675 | 8797 ft | 341 kts | 323° |
| 2026-05-08 20:54 | 12.20755 | -81.65162 | 8441 ft | 323 kts | 323° |
| 2026-05-08 20:54 | 12.22459 | -81.66571 | 8107 ft | 308 kts | 323° |
| 2026-05-08 20:54 | 12.24098 | -81.67924 | 7783 ft | 301 kts | 323° |
| 2026-05-08 20:55 | 12.25175 | -81.68812 | 7563 ft | 300 kts | 323° |
| 2026-05-08 20:55 | 12.27340 | -81.70592 | 7125 ft | 298 kts | 324° |
| 2026-05-08 20:55 | 12.28930 | -81.71897 | 6802 ft | 297 kts | 323° |
| 2026-05-08 20:55 | 12.30533 | -81.73216 | 6481 ft | 295 kts | 323° |
| 2026-05-08 20:56 | 12.32129 | -81.74531 | 6152 ft | 293 kts | 324° |
| 2026-05-08 20:56 | 12.33714 | -81.75836 | 5812 ft | 292 kts | 324° |
| 2026-05-08 20:56 | 12.35294 | -81.77135 | 5472 ft | 291 kts | 324° |
| 2026-05-08 20:56 | 12.36858 | -81.78426 | 5128 ft | 285 kts | 324° |
| 2026-05-08 20:57 | 12.38366 | -81.79675 | 4833 ft | 272 kts | 324° |
| 2026-05-08 20:57 | 12.39320 | -81.80465 | 4692 ft | 262 kts | 324° |
| 2026-05-08 20:57 | 12.41183 | -81.81906 | 4392 ft | 239 kts | 334° |
| 2026-05-08 20:57 | 12.42124 | -81.82463 | 4266 ft | 234 kts | 334° |
| 2026-05-08 20:58 | 12.43971 | -81.83559 | 3969 ft | 228 kts | 334° |
| 2026-05-08 20:58 | 12.45311 | -81.84356 | 3745 ft | 217 kts | 333° |
| 2026-05-08 20:58 | 12.46600 | -81.85124 | 3528 ft | 212 kts | 334° |
| 2026-05-08 20:58 | 12.47444 | -81.85627 | 3385 ft | 211 kts | 335° |
| 2026-05-08 20:59 | 12.49242 | -81.85939 | 3139 ft | 190 kts | 22° |
| 2026-05-08 20:59 | 12.49975 | -81.85518 | 3056 ft | 177 kts | 45° |
| 2026-05-08 20:59 | 12.50665 | -81.84529 | 2852 ft | 168 kts | 62° |
| 2026-05-08 20:59 | 12.51252 | -81.83507 | 2639 ft | 165 kts | 61° |
| 2026-05-08 21:00 | 12.51827 | -81.82511 | 2424 ft | 160 kts | 60° |
| 2026-05-08 21:00 | 12.52384 | -81.81545 | 2216 ft | 156 kts | 61° |
| 2026-05-08 21:00 | 12.52929 | -81.80600 | 2014 ft | 153 kts | 61° |
| 2026-05-08 21:00 | 12.53465 | -81.79669 | 1795 ft | 151 kts | 62° |
| 2026-05-08 21:01 | 12.53983 | -81.78768 | 1588 ft | 143 kts | 60° |
| 2026-05-08 21:01 | 12.54479 | -81.77904 | 1415 ft | 141 kts | 62° |
| 2026-05-08 21:01 | 12.54968 | -81.77050 | 1217 ft | 138 kts | 60° |
| 2026-05-08 21:01 | 12.55443 | -81.76219 | 1024 ft | 137 kts | 62° |
| 2026-05-08 21:02 | 12.55928 | -81.75373 | 837 ft | 137 kts | 61° |
| 2026-05-08 21:02 | 12.56412 | -81.74529 | 646 ft | 141 kts | 60° |
| 2026-05-08 21:02 | 12.56902 | -81.73674 | 414 ft | 139 kts | 59° |
| 2026-05-08 21:02 | 12.57379 | -81.72809 | 256 ft | 138 kts | 59° |
| 2026-05-08 21:03 | 12.57873 | -81.71973 | 67 ft | 136 kts | 59° |
| 2026-05-08 21:03 | 12.58327 | -81.71178 | 27 ft | 116 kts | 59° |
| 2026-05-08 21:03 | 12.58613 | -81.70683 | 21 ft | 38 kts | 59° |
| 2026-05-08 21:03 | 12.58707 | -81.70516 | 15 ft | 25 kts | 61° |
| 2026-05-08 21:04 | 12.58727 | -81.70408 | 15 ft | 14 kts | 110° |
| 2026-05-08 21:04 | 12.58702 | -81.70353 | 16 ft | 8 kts | 115° |
| 2026-05-08 21:04 | 12.58654 | -81.70314 | 13 ft | 1 kts | 147° |
| 2026-05-08 21:04 | 12.58647 | -81.70308 | 13 ft | 0 kts | 145° |
| 2026-05-08 21:05 | 12.56024 | -81.75204 | 800 ft | 0 kts | 61° |
| 2026-05-08 21:06 | 12.56453 | -81.74459 | 617 ft | 141 kts | 60° |
| 2026-05-08 21:06 | 12.56965 | -81.73561 | 393 ft | 139 kts | 59° |
| 2026-05-08 21:06 | 12.57939 | -81.71858 | 55 ft | 137 kts | 60° |
| 2026-05-08 21:06 | 12.58378 | -81.71090 | 30 ft | 107 kts | 60° |
| 2026-05-08 21:07 | 12.57239 | -81.73054 | 309 ft | 136 kts | 61° |
| 2026-05-08 21:07 | 12.57630 | -81.72395 | 126 ft | 138 kts | 60° |
| 2026-05-08 21:07 | 12.58097 | -81.71581 | 40 ft | 131 kts | 59° |
| 2026-05-08 21:07 | 12.58500 | -81.70879 | 22 ft | 85 kts | 59° |
| 2026-05-08 21:08 | 12.58279 | -81.71263 | 27 ft | 120 kts | 59° |
| 2026-05-08 21:08 | 12.57726 | -81.72229 | 101 ft | 135 kts | 59° |
| 2026-05-08 21:08 | 12.58226 | -81.71355 | 34 ft | 123 kts | 60° |
| 2026-05-08 21:08 | 12.58577 | -81.70746 | 21 ft | 57 kts | 59° |
| 2026-05-08 21:09 | 12.57302 | -81.72942 | 288 ft | 139 kts | 59° |